Data for 08/11/2005

Time Sea-Level Adjusted Pressure Absolute Pressure Temperature Relative Humidity Dew Point   
(mb) (inHg) (mb) (inHg) (C) (F) (%) (C) (F)
00:05 1021 30.15 850 25.1 16.5 61.8 57 8.2 46.8
00:10 1021 30.15 850 25.1 16.4 61.5 58 8.2 46.7
00:15 1021 30.15 850 25.1 16.4 61.4 58 8.2 46.7
00:20 1021 30.15 850 25.1 16.3 61.3 58 8.1 46.7
00:25 1021 30.15 850 25.1 16.3 61.3 58 8.1 46.7
00:30 1021 30.15 850 25.1 16.4 61.4 58 8 46.5
00:35 1021 30.15 850 25.1 16.4 61.5 58 8.1 46.6
00:40 1021 30.15 850 25.1 16.3 61.3 58 8.1 46.6
00:45 1021 30.15 850 25.1 16.2 61.2 59 8.2 46.8
00:50 1021 30.15 850 25.1 16.1 61 59 8.2 46.8
00:55 1021 30.15 850 25.1 16 60.7 60 8.2 46.8
01:00 1021 30.15 850 25.1 15.9 60.6 60 8.1 46.7
01:05 1021 30.15 850 25.1 15.9 60.6 60 8.1 46.7
01:10 1021 30.15 850 25.1 16 60.9 59 8.2 46.7
01:15 1021 30.15 850 25.1 16 60.9 59 8.1 46.6
01:20 1021 30.15 850 25.1 16 60.7 60 8.2 46.8
01:25 1021 30.15 850 25.1 15.9 60.7 60 8.3 46.9
01:30 1021 30.15 850 25.1 15.8 60.4 60 8.2 46.7
01:35 1021 30.15 850 25.1 15.8 60.4 61 8.4 47
01:40 1022 30.18 851 25.13 15.7 60.2 63 8.7 47.6
01:45 1022 30.18 851 25.13 15.3 59.5 68 9.4 48.9
01:50 1022 30.18 851 25.13 15.1 59.2 69 9.6 49.3
01:55 1022 30.18 851 25.13 14.9 58.7 72 9.8 49.7
02:00 1022 30.18 851 25.13 14.5 58.2 75 10.2 50.3
02:05 1022 30.18 851 25.13 14.2 57.5 77 10.2 50.3
02:10 1022 30.18 851 25.13 14.1 57.4 77 10.2 50.4
02:15 1022 30.18 851 25.13 14.1 57.4 77 10.2 50.4
02:20 1022 30.18 851 25.13 14.1 57.4 77 10.2 50.3
02:25 1022 30.18 851 25.13 14.1 57.4 78 10.3 50.5
02:30 1022 30.18 851 25.13 14 57.3 77 10.1 50.2
02:35 1022 30.18 851 25.13 13.8 56.8 78 10 50
02:40 1022 30.18 851 25.13 13.5 56.3 78 9.8 49.7
02:45 1022 30.18 851 25.13 13.6 56.4 78 9.8 49.6
02:50 1022 30.18 851 25.13 13.6 56.4 79 10 50
02:55 1022 30.18 851 25.13 13.2 55.7 80 9.7 49.5
03:00 1022 30.18 851 25.13 13 55.3 80 9.6 49.2
03:05 1022 30.18 851 25.13 12.7 54.8 78 9 48.3
03:10 1022 30.18 851 25.13 12.5 54.6 79 9 48.2
03:15 1022 30.18 851 25.13 12.5 54.5 78 8.9 48
03:20 1022 30.18 851 25.13 12.6 54.7 79 9.1 48.4
03:25 1022 30.18 851 25.13 12.6 54.7 79 9.1 48.4
03:30 1022 30.18 851 25.13 12.7 54.8 78 9.1 48.3
03:35 1022 30.18 851 25.13 12.9 55.1 77 9 48.2
03:40 1022 30.18 851 25.13 13.1 55.5 76 9 48.3
03:45 1022 30.18 851 25.13 13 55.4 77 9.2 48.5
03:50 1022 30.18 851 25.13 12.7 54.9 78 9 48.3
03:55 1022 30.18 851 25.13 12.9 55.3 78 9.2 48.6
04:00 1022 30.18 851 25.13 13 55.4 78 9.2 48.6
04:05 1022 30.18 851 25.13 12.9 55.3 80 9.5 49.2
04:10 1022 30.18 851 25.13 12.8 55 80 9.4 48.9
04:15 1022 30.18 851 25.13 12.7 54.9 79 9.2 48.6
04:20 1022 30.18 851 25.13 12.9 55.3 77 9.1 48.3
04:25 1022 30.18 851 25.13 13.2 55.7 77 9.2 48.6
04:30 1022 30.18 851 25.13 13.4 56 77 9.5 49.1
04:35 1022 30.18 852 25.16 13.2 55.8 77 9.4 48.9
04:40 1022 30.18 852 25.16 13 55.5 77 9.2 48.5
04:45 1022 30.18 852 25.16 13.1 55.6 77 9.2 48.6
04:50 1022 30.18 852 25.16 13.1 55.6 77 9.2 48.5
04:55 1022 30.18 852 25.16 13.2 55.8 76 9.1 48.4
05:00 1022 30.18 851 25.13 13.3 56 75 9.1 48.3
05:05 1022 30.18 851 25.13 13.4 56.1 76 9.2 48.6
05:10 1022 30.18 851 25.13 13.1 55.6 78 9.5 49.1
05:15 1022 30.18 851 25.13 13 55.4 79 9.4 48.9
05:20 1022 30.18 851 25.13 13 55.5 77 9.2 48.5
05:25 1022 30.18 851 25.13 13.2 55.7 77 9.3 48.8
05:30 1022 30.18 851 25.13 13.1 55.6 79 9.6 49.2
05:35 1022 30.18 851 25.13 12.8 55.1 82 9.8 49.6
05:40 1022 30.18 851 25.13 12.5 54.4 82 9.5 49.1
05:45 1022 30.18 851 25.13 12.3 54.1 83 9.5 49.1
05:50 1022 30.18 851 25.13 12.2 53.9 83 9.4 48.9
05:55 1022 30.18 851 25.13 12.1 53.8 84 9.5 49.1
06:00 1022 30.18 851 25.13 11.9 53.4 85 9.5 49.1
06:05 1022 30.18 851 25.13 11.7 53.1 86 9.4 49
06:10 1022 30.18 851 25.13 12 53.5 84 9.3 48.8
06:15 1022 30.18 851 25.13 12.1 53.8 83 9.3 48.7
06:20 1022 30.18 851 25.13 12 53.6 84 9.4 49
06:25 1022 30.18 851 25.13 11.9 53.5 84 9.3 48.8
06:30 1022 30.18 851 25.13 11.7 53.1 86 9.5 49
06:35 1022 30.18 851 25.13 11.4 52.6 87 9.4 48.9
06:40 1022 30.18 851 25.13 11.5 52.6 87 9.3 48.8
06:45 1022 30.18 851 25.13 11.4 52.6 86 9.2 48.6
06:50 1022 30.18 851 25.13 11.6 52.9 85 9.2 48.5
06:55 1022 30.18 851 25.13 11.7 53.1 85 9.3 48.7
07:00 1022 30.18 851 25.13 11.8 53.2 85 9.3 48.8
07:05 1022 30.18 852 25.16 11.9 53.3 84 9.2 48.6
07:10 1022 30.18 852 25.16 12.1 53.7 83 9.3 48.7
07:15 1022 30.18 852 25.16 12 53.7 84 9.3 48.8
07:20 1022 30.18 852 25.16 12 53.7 83 9.2 48.6
07:25 1023 30.21 852 25.16 12.3 54.1 82 9.4 48.9
07:30 1023 30.21 852 25.16 12.4 54.3 82 9.5 49
07:35 1023 30.21 852 25.16 12.4 54.3 82 9.5 49.1
07:40 1023 30.21 852 25.16 12.7 54.9 80 9.4 49
07:45 1023 30.21 852 25.16 12.9 55.3 81 9.7 49.5
07:50 1023 30.21 852 25.16 12.7 54.9 81 9.6 49.3
07:55 1023 30.21 852 25.16 12.9 55.3 79 9.5 49
08:00 1023 30.21 852 25.16 13.4 56.1 78 9.7 49.5
08:05 1023 30.21 852 25.16 13.8 56.8 78 10 49.9
08:10 1023 30.21 852 25.16 13.8 56.8 79 10.3 50.5
08:15 1023 30.21 852 25.16 13.5 56.3 81 10.3 50.5
08:20 1023 30.21 852 25.16 13.5 56.2 82 10.4 50.7
08:25 1023 30.21 852 25.16 13.8 56.8 81 10.6 51.1
08:30 1023 30.21 852 25.16 13.7 56.7 81 10.5 50.9
08:35 1023 30.21 852 25.16 14.2 57.5 79 10.7 51.2
08:40 1023 30.21 852 25.16 14.6 58.3 78 10.8 51.4
08:45 1023 30.21 852 25.16 15 59.1 76 11 51.7
08:50 1023 30.21 852 25.16 14.9 58.9 77 10.9 51.6
08:55 1023 30.21 852 25.16 15 59 76 10.8 51.5
09:00 1023 30.21 852 25.16 15.5 59.9 75 11.1 52
09:05 1023 30.21 852 25.16 15.2 59.3 78 11.3 52.4
09:10 1023 30.21 852 25.16 15.1 59.1 77 11 51.8
09:15 1023 30.21 852 25.16 15.6 60.1 75 11.2 52.2
09:20 1023 30.21 852 25.16 16 60.8 74 11.4 52.5
09:25 1023 30.21 852 25.16 16.4 61.5 72 11.4 52.4
09:30 1023 30.21 852 25.16 16.7 62 72 11.6 52.9
09:35 1023 30.21 852 25.16 16.1 61 75 11.8 53.2
09:40 1023 30.21 852 25.16 16.2 61.2 73 11.5 52.7
09:45 1023 30.21 852 25.16 17 62.5 69 11.3 52.4
09:50 1023 30.21 852 25.16 17 62.6 71 11.8 53.3
09:55 1023 30.21 852 25.16 16.7 62.1 71 11.4 52.5
10:00 1023 30.21 852 25.16 17.9 64.1 66 11.6 52.9
10:05 1023 30.21 852 25.16 17.9 64.3 67 11.8 53.3
10:10 1023 30.21 852 25.16 17.8 64.1 68 11.9 53.4
10:15 1023 30.21 852 25.16 17.6 63.7 67 11.4 52.5
10:20 1023 30.21 852 25.16 17.8 64 67 11.7 53.1
10:25 1023 30.21 852 25.16 18 64.5 65 11.5 52.7
10:30 1023 30.21 852 25.16 18.5 65.4 64 11.7 53
10:35 1023 30.21 852 25.16 18.3 64.9 65 11.7 53.1
10:40 1023 30.21 852 25.16 18.6 65.5 63 11.5 52.7
10:45 1023 30.21 852 25.16 18.9 66.1 62 11.6 52.9
10:50 1023 30.21 852 25.16 18.6 65.5 63 11.6 53
10:55 1023 30.21 852 25.16 18.8 65.8 64 12 53.6
11:00 1023 30.21 852 25.16 18.1 64.5 65 11.4 52.6
11:05 1023 30.21 852 25.16 18.8 65.8 63 11.7 53
11:10 1023 30.21 852 25.16 19.6 67.2 63 12.3 54.2
11:15 1023 30.21 852 25.16 20 68 59 11.9 53.5
11:20 1023 30.21 852 25.16 20.3 68.5 59 12 53.6
11:25 1023 30.21 852 25.16 20.3 68.6 58 11.9 53.3
11:30 1023 30.21 852 25.16 20.6 69.1 57 12 53.6
11:35 1023 30.21 852 25.16 20.3 68.5 59 12.1 53.8
11:40 1023 30.21 852 25.16 20.3 68.5 58 11.9 53.5
11:45 1022 30.18 852 25.16 20.1 68.2 60 12.2 54
11:50 1022 30.18 852 25.16 20.3 68.6 56 11.4 52.4
11:55 1022 30.18 852 25.16 21 69.7 55 11.6 53
12:00 1022 30.18 852 25.16 21.2 70.1 53 11.4 52.6
12:05 1022 30.18 852 25.16 21.3 70.3 54 11.8 53.3
12:10 1022 30.18 852 25.16 20.8 69.5 55 11.7 53
12:15 1022 30.18 851 25.13 20.7 69.2 58 12.3 54.1
12:20 1022 30.18 851 25.13 21.1 70 53 11.4 52.5
12:25 1022 30.18 851 25.13 21.1 69.9 58 12.5 54.6
12:30 1022 30.18 851 25.13 21.1 70 55 11.9 53.5
12:35 1022 30.18 851 25.13 21.5 70.7 56 12.4 54.2
12:40 1022 30.18 851 25.13 21.2 70.1 56 12.2 54
12:45 1022 30.18 851 25.13 21.7 71 51 11.3 52.3
12:50 1022 30.18 851 25.13 21.4 70.5 52 11.2 52.2
12:55 1022 30.18 851 25.13 22.4 72.3 49 11.4 52.6
13:00 1022 30.18 851 25.13 22.4 72.3 52 12.2 54
13:05 1022 30.18 851 25.13 22.4 72.4 48 11.1 51.9
13:10 1022 30.18 851 25.13 22.9 73.2 47 11.1 52.1
13:15 1022 30.18 851 25.13 23.1 73.6 49 11.9 53.4
13:20 1022 30.18 851 25.13 23.1 73.5 48 11.6 52.9
13:25 1022 30.18 851 25.13 22.9 73.1 49 11.7 53
13:30 1022 30.18 851 25.13 22.8 73.1 46 10.7 51.3
13:35 1022 30.18 851 25.13 22.9 73.1 45 10.5 50.9
13:40 1022 30.18 851 25.13 23.2 73.7 46 11 51.8
13:45 1022 30.18 851 25.13 23.3 73.9 44 10.4 50.7
13:50 1021 30.15 851 25.13 23.4 74.2 45 11 51.9
13:55 1021 30.15 851 25.13 23.6 74.6 45 11.1 52
14:00 1021 30.15 850 25.1 24.1 75.4 41 10.1 50.2
14:05 1021 30.15 851 25.13 24 75.1 40 9.8 49.6
14:10 1021 30.15 850 25.1 24.6 76.2 39 10.1 50.2
14:15 1021 30.15 850 25.1 25 77 39 10.2 50.3
14:20 1021 30.15 850 25.1 24.8 76.6 38 9.6 49.2
14:25 1021 30.15 850 25.1 24.7 76.4 38 9.6 49.3
14:30 1021 30.15 850 25.1 24.6 76.3 38 9.7 49.5
14:35 1021 30.15 850 25.1 24.7 76.5 35 8.4 47.1
14:40 1021 30.15 850 25.1 24.8 76.7 35 8.7 47.7
14:45 1021 30.15 850 25.1 24.5 76.1 36 8.8 47.8
14:50 1021 30.15 850 25.1 24.7 76.5 40 10.4 50.7
14:55 1021 30.15 850 25.1 24.5 76.2 32 6.9 44.4
15:00 1021 30.15 850 25.1 24.7 76.5 28 5.1 41.1
15:05 1021 30.15 850 25.1 24.1 75.3 30 5.6 42.1
15:10 1021 30.15 850 25.1 25 77.1 25 3.8 38.9
15:15 1021 30.15 850 25.1 24.4 75.8 27 4.5 40
15:20 1021 30.15 850 25.1 24 75.2 26 3.5 38.3
15:25 1021 30.15 850 25.1 24.8 76.7 22 2.2 36
15:30 1021 30.15 850 25.1 24.9 76.7 23 2.8 37.1
15:35 1021 30.15 850 25.1 25.2 77.4 24 3.6 38.5
15:40 1021 30.15 850 25.1 25.6 78.1 23 3.4 38.1
15:45 1020 30.12 850 25.1 25.7 78.2 25 4.5 40.2
15:50 1020 30.12 850 25.1 26 78.8 25 4.5 40.2
15:55 1020 30.12 850 25.1 26 78.7 27 6 42.9
16:00 1020 30.12 850 25.1 26.2 79.1 27 5.9 42.6
16:05 1020 30.12 850 25.1 25.4 77.8 28 5.9 42.7
16:10 1020 30.12 850 25.1 25.2 77.4 28 5.9 42.6
16:15 1020 30.12 850 25.1 25.4 77.7 27 5.4 41.8
16:20 1020 30.12 849 25.07 25.1 77.2 26 4.3 39.7
16:25 1020 30.12 849 25.07 25.2 77.4 27 5.4 41.7
16:30 1020 30.12 849 25.07 25.4 77.7 25 4.1 39.3
16:35 1020 30.12 849 25.07 25.5 77.9 25 4.3 39.8
16:40 1020 30.12 849 25.07 25.8 78.5 24 4.3 39.7
16:45 1020 30.12 849 25.07 26.3 79.3 24 4.5 40.1
16:50 1020 30.12 849 25.07 25.6 78.1 26 5.1 41.1
16:55 1020 30.12 849 25.07 25.4 77.7 24 3.7 38.7
17:00 1020 30.12 849 25.07 25.3 77.6 24 3.7 38.6
17:05 1020 30.12 849 25.07 25.4 77.7 24 3.7 38.6
17:10 1020 30.12 849 25.07 25.5 77.9 24 3.6 38.4
17:15 1020 30.12 849 25.07 25.8 78.5 23 3.1 37.7
17:20 1020 30.12 849 25.07 26.1 79 23 3.7 38.7
17:25 1020 30.12 849 25.07 25.7 78.3 24 4.1 39.3
17:30 1020 30.12 849 25.07 25.6 78.2 22 2.7 36.8
17:35 1020 30.12 849 25.07 25.2 77.4 23 2.8 37
17:40 1020 30.12 849 25.07 25.9 78.5 23 3.4 38.2
17:45 1020 30.12 849 25.07 26.2 79.1 23 3.6 38.4
17:50 1020 30.12 849 25.07 26.1 78.9 23 3.9 39
17:55 1020 30.12 849 25.07 26.3 79.3 24 4.6 40.3
18:00 1020 30.12 849 25.07 26.3 79.3 23 3.8 38.8
18:05 1020 30.12 849 25.07 26.3 79.4 23 4.1 39.4
18:10 1020 30.12 849 25.07 25.7 78.3 25 4.3 39.7
18:15 1020 30.12 849 25.07 25.1 77.2 25 4 39.2
18:20 1020 30.12 849 25.07 25.1 77.2 26 4.7 40.4
18:25 1020 30.12 849 25.07 25.1 77.1 26 4.4 40
18:30 1019 30.09 849 25.07 25.2 77.4 27 4.9 40.9
18:35 1019 30.09 849 25.07 25.4 77.6 26 4.7 40.5
18:40 1019 30.09 849 25.07 24.9 76.8 27 4.9 40.8
18:45 1019 30.09 849 25.07 24.6 76.3 28 4.9 40.8
18:50 1019 30.09 849 25.07 24.5 76.1 29 5.5 41.9
18:55 1019 30.09 848 25.04 24.3 75.7 28 5.1 41.1
19:00 1019 30.09 848 25.04 24 75.1 30 5.4 41.7
19:05 1019 30.09 848 25.04 23.6 74.5 31 5.5 42
19:10 1019 30.09 848 25.04 23.8 74.8 31 5.9 42.6
19:15 1019 30.09 848 25.04 23.6 74.4 29 4.8 40.6
19:20 1019 30.09 848 25.04 23.3 74 30 4.8 40.6
19:25 1019 30.09 848 25.04 23.4 74.1 30 5.1 41.3
19:30 1019 30.09 848 25.04 23.5 74.4 31 5.5 42
19:35 1019 30.09 848 25.04 23.5 74.3 31 5.6 42.1
19:40 1019 30.09 848 25.04 23.5 74.2 31 5.6 42.1
19:45 1019 30.09 848 25.04 23.1 73.6 36 7.3 45.2
19:50 1019 30.09 848 25.04 22.9 73.2 36 7.3 45.2
19:55 1019 30.09 848 25.04 22.8 73 40 8.5 47.3
20:00 1019 30.09 848 25.04 22.7 72.8 34 6.2 43.1
20:05 1019 30.09 848 25.04 22.7 72.8 41 8.9 48
20:10 1019 30.09 849 25.07 21.8 71.2 46 9.9 49.8
20:15 1019 30.09 849 25.07 20.9 69.6 51 10.5 51
20:20 1019 30.09 849 25.07 20.3 68.6 54 10.7 51.3
20:25 1019 30.09 849 25.07 19.9 67.8 55 10.6 51.1
20:30 1019 30.09 849 25.07 19.6 67.3 55 10.5 50.9
20:35 1020 30.12 849 25.07 19.3 66.7 56 10.4 50.8
20:40 1020 30.12 849 25.07 19 66.3 56 10.3 50.5
20:45 1020 30.12 849 25.07 18.9 66 57 10.3 50.6
20:50 1020 30.12 849 25.07 18.7 65.6 57 10.1 50.2
20:55 1020 30.12 849 25.07 18.6 65.4 57 10.1 50.1
21:00 1020 30.12 849 25.07 18.4 65.1 58 10 50
21:05 1020 30.12 849 25.07 18.2 64.8 58 10 50
21:10 1020 30.12 849 25.07 18.1 64.5 59 10 49.9
21:15 1020 30.12 849 25.07 18 64.4 59 9.9 49.8
21:20 1020 30.12 849 25.07 17.9 64.3 59 9.8 49.7
21:25 1020 30.12 850 25.1 17.8 64 59 9.8 49.6
21:30 1020 30.12 850 25.1 17.8 64 58 9.6 49.3
21:35 1020 30.12 850 25.1 17.8 64 58 9.6 49.3
21:40 1020 30.12 850 25.1 17.7 63.8 59 9.7 49.4
21:45 1021 30.15 850 25.1 17.6 63.7 59 9.6 49.4
21:50 1021 30.15 850 25.1 17.5 63.5 60 9.7 49.4
21:55 1021 30.15 850 25.1 17.4 63.2 60 9.5 49.1
22:00 1020 30.12 850 25.1 17.4 63.4 59 9.4 49
22:05 1020 30.12 850 25.1 17.3 63.2 59 9.4 49
22:10 1021 30.15 850 25.1 17.2 62.9 60 9.5 49.1
22:15 1021 30.15 850 25.1 17.2 62.9 60 9.4 48.8
22:20 1021 30.15 850 25.1 17.2 63 60 9.5 49.1
22:25 1020 30.12 850 25.1 17.1 62.7 61 9.5 49
22:30 1020 30.12 850 25.1 17 62.6 61 9.5 49
22:35 1020 30.12 850 25.1 16.9 62.4 61 9.5 49.1
22:40 1021 30.15 850 25.1 16.9 62.4 61 9.5 49
22:45 1020 30.12 850 25.1 16.8 62.2 62 9.5 49.1
22:50 1020 30.12 850 25.1 16.7 62.1 62 9.5 49.1
22:55 1021 30.15 850 25.1 16.7 62 62 9.4 49
23:00 1021 30.15 850 25.1 16.6 61.9 62 9.4 48.9
23:05 1021 30.15 850 25.1 16.4 61.5 63 9.4 48.9
23:10 1021 30.15 850 25.1 16.3 61.4 64 9.5 49
23:15 1021 30.15 850 25.1 16.2 61.1 64 9.3 48.8
23:20 1021 30.15 850 25.1 16.1 61 64 9.4 49
23:25 1021 30.15 850 25.1 16 60.8 64 9.3 48.8
23:30 1021 30.15 850 25.1 16 60.7 64 9.3 48.7
23:35 1021 30.15 850 25.1 15.9 60.6 64 9.2 48.6
23:40 1021 30.15 850 25.1 15.8 60.5 64 9.2 48.6
23:45 1021 30.15 850 25.1 15.7 60.3 64 9.1 48.4
23:50 1021 30.15 850 25.1 15.6 60.2 65 9.1 48.4
23:55 1021 30.15 850 25.1 15.5 59.9 65 9.1 48.4
24:00 1021 30.15 850 25.1 15.4 59.7 66 9.1 48.4